Americus, Kansas
Current Conditions -  °F | °C
As of 6:53 PM on Sunday 23 Nov 2014 (Local Time) from KEMP Reporting Station
Light Rain Light Rain  
Wind Chill: 30°   Ceiling: 1600
Heat Index: 40°   Visibility: 10mi
Dew Point: 38°   Wind: 21mph
Humidity: 93%   Direction: 340°NNW
Pressure: 29.54"   Gusts: 30mph
Location:  38.51°N, 96.26°W
Report Text: KEMP 240053Z AUTO 34018G26KT 10SM -RA BKN016 BKN021 OVC050 04/03 A2954 RMK AO2 PK WND 35030/0039 SLP005 P0002 T00440033
Loading
Personal Weather Stations






























Interactive Weather Map New forecast layout! Learn more

10-Day Weather Forecast

Advertisements
Track Severe Weather on mobile